Time;durP1;ratioP1;P1;durP2;ratioP2;P2;SDS_P1;SDS_P2;PMS_P1;PMS_P2;Temp;Humidity;BMP_temperature;BMP_pressure;BME280_temperature;BME280_humidity;BME280_pressure;Samples;Min_cycle;Max_cycle;Signal;HPM_P1;HPM_P2
2021/03/08 05:31:08;;;;;;;39.08;18.95;;;;;;;;;;5349925;23;19922;-71
2021/03/08 05:33:34;;;;;;;41.50;19.00;;;;;;;;;;4988982;28;20027;-70
2021/03/08 05:36:00;;;;;;;38.92;19.10;;;;;;;;;;4980308;28;20112;-72
2021/03/08 05:38:28;;;;;;;39.53;18.67;;;;;;;;;;4982997;28;20027;-71
2021/03/08 05:41:09;;;;;;;37.88;18.27;;;;;;;;;;4981029;28;20493;-69
2021/03/08 05:43:36;;;;;;;43.10;19.42;;;;;;;;;;4982238;28;20387;-69
2021/03/08 05:46:21;;;;;;;41.13;18.27;;;;;;;;;;4982230;28;20023;-70
2021/03/08 05:48:56;;;;;;;41.55;18.83;;;;;;;;;;4982393;28;20026;-72
2021/03/08 05:51:41;;;;;;;42.47;19.75;;;;;;;;;;4982158;28;20165;-71
2021/03/08 05:54:26;;;;;;;39.97;19.58;;;;;;;;;;4970110;28;20034;-72
2021/03/08 05:57:14;;;;;;;40.40;17.38;;;;;;;;;;4985712;28;20029;-72
2021/03/08 05:59:52;;;;;;;39.05;19.95;;;;;;;;;;4985678;28;20038;-72
2021/03/08 06:02:37;;;;;;;41.63;19.00;;;;;;;;;;4983745;28;20042;-72
2021/03/08 06:05:15;;;;;;;39.70;18.83;;;;;;;;;;4973970;28;20023;-72
2021/03/08 06:08:00;;;;;;;40.03;18.45;;;;;;;;;;4983306;28;20041;-72
2021/03/08 06:23:26;;;;;;;45.10;22.70;;;;;;;;;;6012465;23;19924;-70
2021/03/08 06:25:53;;;;;;;52.38;22.83;;;;;;;;;;4991108;28;20444;-70
2021/03/08 06:28:20;;;;;;;57.90;25.15;;;;;;;;;;4993933;28;20029;-69
2021/03/08 06:30:46;;;;;;;65.70;27.05;;;;;;;;;;4993142;28;20466;-70
2021/03/08 06:33:17;;;;;;;66.13;27.88;;;;;;;;;;4992458;28;20033;-72
2021/03/08 06:35:47;;;;;;;57.15;25.00;;;;;;;;;;4992102;28;20050;-72
2021/03/08 06:38:18;;;;;;;63.20;26.73;;;;;;;;;;4991088;28;20445;-74
2021/03/08 06:40:48;;;;;;;48.53;22.27;;;;;;;;;;4995961;28;20050;-76
2021/03/08 06:43:20;;;;;;;57.03;23.95;;;;;;;;;;4981065;28;20434;-75
2021/03/08 06:45:49;;;;;;;47.95;21.50;;;;;;;;;;4982185;28;20098;-72
2021/03/08 06:48:15;;;;;;;50.95;23.40;;;;;;;;;;4992750;28;20033;-75
2021/03/08 06:50:41;;;;;;;53.03;24.20;;;;;;;;;;4993571;28;20036;-73
2021/03/08 06:53:07;;;;;;;49.03;24.17;;;;;;;;;;4984039;28;20117;-73
2021/03/08 06:55:34;;;;;;;52.08;23.73;;;;;;;;;;4993619;28;20037;-73
2021/03/08 06:58:19;;;;;;;52.67;22.80;;;;;;;;;;4972453;28;20062;-73
2021/03/08 07:00:45;;;;;;;43.35;19.85;;;;;;;;;;4978888;28;20451;-73
2021/03/08 07:03:33;;;;;;;21.95;10.32;;;;;;;;;;4976633;28;20023;-74
2021/03/08 07:06:16;;;;;;;16.20;8.32;;;;;;;;;;4993857;28;20375;-73
2021/03/08 07:08:45;;;;;;;14.57;8.23;;;;;;;;;;4993772;28;20129;-73
2021/03/08 07:11:22;;;;;;;20.85;7.70;;;;;;;;;;4994701;28;20105;-74
2021/03/08 07:13:48;;;;;;;17.92;7.63;;;;;;;;;;4994629;28;20057;-72
2021/03/08 07:16:15;;;;;;;14.45;6.93;;;;;;;;;;4993801;28;20030;-73
2021/03/08 07:18:41;;;;;;;11.77;5.28;;;;;;;;;;4994578;28;20112;-75
2021/03/08 07:21:16;;;;;;;7.28;3.83;;;;;;;;;;4994166;28;20169;-74
2021/03/08 07:23:43;;;;;;;13.52;6.20;;;;;;;;;;4994528;28;20049;-72
2021/03/08 07:26:10;;;;;;;12.27;5.32;;;;;;;;;;4994376;28;20030;-75
2021/03/08 07:28:36;;;;;;;17.52;7.43;;;;;;;;;;4994343;28;20030;-73
2021/03/08 07:31:02;;;;;;;11.60;5.68;;;;;;;;;;4991541;28;20031;-75
2021/03/08 07:33:31;;;;;;;9.05;3.72;;;;;;;;;;4983233;28;20029;-74
2021/03/08 07:35:57;;;;;;;14.35;6.40;;;;;;;;;;4987151;28;20030;-73
2021/03/08 07:38:32;;;;;;;24.20;8.77;;;;;;;;;;4993460;28;20101;-73
2021/03/08 07:41:21;;;;;;;14.10;6.38;;;;;;;;;;4990144;28;20086;-73
2021/03/08 07:43:48;;;;;;;22.75;8.07;;;;;;;;;;4987587;28;20034;-73
2021/03/08 07:46:30;;;;;;;15.10;6.20;;;;;;;;;;4973313;28;20062;-75
2021/03/08 07:48:57;;;;;;;15.45;5.82;;;;;;;;;;4973200;28;20093;-72
2021/03/08 07:51:23;;;;;;;13.25;5.43;;;;;;;;;;4973181;28;20042;-71
2021/03/08 07:53:57;;;;;;;13.23;7.75;;;;;;;;;;4974657;28;20035;-71
2021/03/08 07:56:23;;;;;;;18.23;10.27;;;;;;;;;;4974542;28;20081;-70
2021/03/08 07:58:49;;;;;;;12.90;6.57;;;;;;;;;;4974742;28;20035;-72
2021/03/08 08:01:15;;;;;;;13.70;7.13;;;;;;;;;;4991391;28;20137;-71
2021/03/08 08:03:44;;;;;;;8.63;4.15;;;;;;;;;;4992332;28;20061;-73
2021/03/08 08:06:11;;;;;;;5.35;2.90;;;;;;;;;;4992304;28;20026;-72
2021/03/08 08:08:38;;;;;;;8.32;2.92;;;;;;;;;;4992340;28;20446;-72
2021/03/08 08:11:05;;;;;;;9.93;3.42;;;;;;;;;;4993657;28;20121;-73
2021/03/08 08:13:38;;;;;;;10.10;4.35;;;;;;;;;;4993474;28;20038;-72
2021/03/08 08:16:07;;;;;;;9.18;4.55;;;;;;;;;;4992156;28;20042;-70
2021/03/08 08:18:36;;;;;;;15.90;6.00;;;;;;;;;;4991845;28;20034;-71
2021/03/08 08:21:08;;;;;;;8.32;3.33;;;;;;;;;;4993285;28;20100;-73
2021/03/08 08:23:39;;;;;;;9.95;2.83;;;;;;;;;;4994347;28;20499;-70
2021/03/08 08:26:11;;;;;;;6.88;2.80;;;;;;;;;;5012951;28;20148;-72
2021/03/08 08:28:38;;;;;;;9.65;3.53;;;;;;;;;;5012787;28;20034;-73
2021/03/08 08:31:04;;;;;;;11.73;3.50;;;;;;;;;;4994921;28;20026;-73
2021/03/08 08:33:31;;;;;;;15.00;7.57;;;;;;;;;;4995196;28;20030;-74
2021/03/08 08:36:11;;;;;;;19.55;12.68;;;;;;;;;;4993697;28;20026;-74
2021/03/08 08:38:38;;;;;;;9.52;6.20;;;;;;;;;;4982495;28;20041;-73
2021/03/08 08:41:23;;;;;;;6.18;4.30;;;;;;;;;;4977452;28;20058;-71
2021/03/08 08:44:14;;;;;;;12.75;6.90;;;;;;;;;;4982027;28;20030;-73
2021/03/08 08:46:41;;;;;;;8.25;4.90;;;;;;;;;;4975364;28;20463;-71
2021/03/08 08:51:58;;;;;;;9.70;4.80;;;;;;;;;;4971945;28;20038;-71
2021/03/08 08:54:33;;;;;;;11.38;4.85;;;;;;;;;;4972107;28;20078;-74
2021/03/08 08:57:02;;;;;;;12.07;5.13;;;;;;;;;;4973746;28;20118;-70
2021/03/08 08:59:28;;;;;;;10.15;6.22;;;;;;;;;;4978062;28;20050;-72
2021/03/08 09:02:29;;;;;;;15.30;9.20;;;;;;;;;;4994410;28;20037;-74
2021/03/08 09:04:59;;;;;;;17.13;10.80;;;;;;;;;;4993560;28;20033;-76
2021/03/08 09:07:26;;;;;;;23.63;13.63;;;;;;;;;;4994293;28;20033;-73
2021/03/08 09:09:52;;;;;;;9.13;6.00;;;;;;;;;;4994328;28;20064;-74
2021/03/08 09:12:38;;;;;;;15.27;5.40;;;;;;;;;;4994584;28;20032;-72
2021/03/08 09:15:30;;;;;;;9.27;4.70;;;;;;;;;;5011599;28;20478;-74
2021/03/08 09:18:03;;;;;;;9.38;4.80;;;;;;;;;;4994928;28;20379;-75
2021/03/08 09:20:32;;;;;;;10.93;5.90;;;;;;;;;;5012338;28;20026;-74
2021/03/08 09:23:01;;;;;;;17.27;8.32;;;;;;;;;;4994458;28;20060;-72
2021/03/08 09:25:27;;;;;;;228.38;92.85;;;;;;;;;;4994474;28;20054;-72
2021/03/08 09:27:59;;;;;;;85.05;31.60;;;;;;;;;;4994682;28;20029;-71
2021/03/08 09:30:32;;;;;;;81.90;27.02;;;;;;;;;;4996756;28;20049;-72
2021/03/08 09:33:01;;;;;;;20.30;8.68;;;;;;;;;;5012633;28;20076;-70
2021/03/08 09:35:31;;;;;;;20.67;9.98;;;;;;;;;;4992245;28;20034;-72
2021/03/08 09:38:07;;;;;;;55.43;19.83;;;;;;;;;;4993898;28;20390;-76
2021/03/08 09:40:37;;;;;;;52.25;18.98;;;;;;;;;;4995613;28;20301;-73
2021/03/08 09:43:19;;;;;;;260.52;103.55;;;;;;;;;;4995855;28;19921;-74
2021/03/08 09:45:56;;;;;;;39.15;18.20;;;;;;;;;;4992734;28;20403;-76
2021/03/08 09:48:25;;;;;;;14.38;7.57;;;;;;;;;;4976388;28;20037;-73
2021/03/08 09:50:51;;;;;;;29.00;17.02;;;;;;;;;;4976182;28;20097;-74
2021/03/08 09:53:18;;;;;;;16.25;8.65;;;;;;;;;;4981598;28;20034;-80
2021/03/08 09:55:47;;;;;;;80.68;39.35;;;;;;;;;;4974496;28;20387;-73
2021/03/08 09:58:17;;;;;;;46.80;26.95;;;;;;;;;;4992974;28;20027;-76
2021/03/08 10:00:51;;;;;;;16.23;7.87;;;;;;;;;;4994340;28;20082;-73
2021/03/08 10:03:21;;;;;;;16.40;9.85;;;;;;;;;;4977890;28;20446;-75
2021/03/08 10:05:51;;;;;;;14.20;7.83;;;;;;;;;;4989543;28;20498;-76
2021/03/08 10:08:18;;;;;;;15.63;8.32;;;;;;;;;;4976922;28;20034;-73
2021/03/08 10:10:49;;;;;;;16.33;9.20;;;;;;;;;;4994989;28;20037;-75
2021/03/08 10:13:15;;;;;;;36.75;15.38;;;;;;;;;;4972819;28;20379;-76
2021/03/08 10:15:47;;;;;;;21.15;9.98;;;;;;;;;;4975717;28;20482;-74
2021/03/08 10:18:14;;;;;;;18.40;9.98;;;;;;;;;;4994369;28;20383;-72
2021/03/08 10:20:44;;;;;;;34.30;16.45;;;;;;;;;;4994690;28;20038;-73
2021/03/08 10:23:17;;;;;;;24.55;10.95;;;;;;;;;;4977901;28;20030;-74
2021/03/08 10:25:46;;;;;;;26.65;11.73;;;;;;;;;;4993330;28;20050;-72
2021/03/08 10:28:16;;;;;;;17.27;8.10;;;;;;;;;;4991551;28;20105;-74
2021/03/08 10:30:43;;;;;;;17.23;10.05;;;;;;;;;;4995110;28;20026;-73
2021/03/08 10:33:12;;;;;;;18.00;9.93;;;;;;;;;;4990768;28;20030;-76
2021/03/08 10:35:46;;;;;;;17.63;9.50;;;;;;;;;;4981410;28;20031;-73
2021/03/08 10:38:20;;;;;;;15.70;8.30;;;;;;;;;;4993147;28;20041;-74
2021/03/08 10:40:46;;;;;;;26.80;12.45;;;;;;;;;;4994226;28;20108;-75
2021/03/08 10:43:12;;;;;;;22.55;11.02;;;;;;;;;;4990945;28;20038;-72
2021/03/08 10:45:41;;;;;;;20.92;9.55;;;;;;;;;;4990189;28;20443;-74
2021/03/08 10:48:11;;;;;;;17.80;8.40;;;;;;;;;;4991054;28;20026;-74
2021/03/08 10:50:45;;;;;;;22.48;9.13;;;;;;;;;;4991805;28;20067;-70
2021/03/08 10:53:11;;;;;;;25.55;10.85;;;;;;;;;;4994293;28;20093;-70
2021/03/08 10:55:38;;;;;;;19.17;8.50;;;;;;;;;;4992831;28;20475;-74
2021/03/08 10:58:04;;;;;;;25.05;11.73;;;;;;;;;;4992523;28;20038;-74
2021/03/08 11:00:30;;;;;;;27.30;12.60;;;;;;;;;;4992885;28;20100;-74
2021/03/08 11:03:00;;;;;;;22.23;11.10;;;;;;;;;;4993433;28;20038;-73
2021/03/08 11:05:27;;;;;;;14.65;6.85;;;;;;;;;;4993808;28;20118;-73
2021/03/08 11:07:57;;;;;;;12.20;6.43;;;;;;;;;;4990406;28;20034;-72
2021/03/08 11:10:37;;;;;;;15.15;6.78;;;;;;;;;;4992381;28;20430;-72
2021/03/08 11:13:08;;;;;;;15.82;6.72;;;;;;;;;;4992308;28;20431;-71
2021/03/08 11:15:38;;;;;;;14.00;6.50;;;;;;;;;;4994151;28;20026;-72
2021/03/08 11:18:21;;;;;;;11.07;5.18;;;;;;;;;;4990877;28;20033;-73
2021/03/08 11:20:48;;;;;;;15.02;6.65;;;;;;;;;;4991585;28;20446;-72
2021/03/08 11:23:24;;;;;;;23.23;10.15;;;;;;;;;;4992013;28;20026;-73
2021/03/08 11:25:52;;;;;;;12.88;7.22;;;;;;;;;;4992298;28;20454;-77
2021/03/08 11:28:19;;;;;;;13.55;6.50;;;;;;;;;;4994277;28;20042;-71
2021/03/08 11:30:51;;;;;;;16.58;5.95;;;;;;;;;;4994422;28;20034;-71
2021/03/08 11:33:18;;;;;;;13.80;5.53;;;;;;;;;;4992743;28;20030;-71
2021/03/08 11:35:49;;;;;;;11.32;6.28;;;;;;;;;;4992661;28;20030;-70
2021/03/08 11:38:20;;;;;;;13.88;5.80;;;;;;;;;;4992036;28;20061;-73
2021/03/08 11:40:47;;;;;;;46.75;25.42;;;;;;;;;;4993306;28;20030;-71
2021/03/08 11:43:17;;;;;;;25.48;14.50;;;;;;;;;;4992475;28;20079;-74
2021/03/08 11:45:43;;;;;;;16.60;7.95;;;;;;;;;;4992748;28;20616;-70
2021/03/08 11:48:09;;;;;;;16.30;8.75;;;;;;;;;;4993930;28;20110;-71
2021/03/08 11:50:38;;;;;;;10.35;4.18;;;;;;;;;;4993677;28;20030;-73
2021/03/08 11:53:05;;;;;;;14.35;7.32;;;;;;;;;;4991654;28;20032;-70
2021/03/08 11:55:31;;;;;;;17.38;6.82;;;;;;;;;;4993911;28;20741;-70
2021/03/08 11:57:57;;;;;;;7.97;4.00;;;;;;;;;;4993729;28;20038;-72
2021/03/08 12:00:24;;;;;;;10.52;6.13;;;;;;;;;;4992596;28;20382;-70
2021/03/08 12:02:51;;;;;;;12.30;6.95;;;;;;;;;;4993612;28;20366;-70
2021/03/08 12:05:17;;;;;;;13.02;5.55;;;;;;;;;;4993638;28;20037;-74
2021/03/08 12:07:44;;;;;;;12.60;5.40;;;;;;;;;;4992384;28;20490;-70
2021/03/08 12:10:11;;;;;;;11.35;5.35;;;;;;;;;;4992177;28;20033;-69
2021/03/08 12:12:37;;;;;;;14.30;6.32;;;;;;;;;;4993487;28;20109;-71
2021/03/08 12:15:07;;;;;;;11.80;5.50;;;;;;;;;;4992281;28;20045;-69
2021/03/08 12:17:33;;;;;;;17.65;6.85;;;;;;;;;;4993296;28;20618;-71
2021/03/08 12:20:00;;;;;;;12.68;4.63;;;;;;;;;;4991495;28;20041;-72
2021/03/08 12:22:26;;;;;;;12.35;5.35;;;;;;;;;;4993482;28;20042;-71
2021/03/08 12:24:52;;;;;;;8.77;4.40;;;;;;;;;;4988505;28;20058;-71
2021/03/08 12:27:18;;;;;;;14.70;5.68;;;;;;;;;;4977489;28;20066;-72
2021/03/08 12:29:44;;;;;;;30.05;9.88;;;;;;;;;;4985636;28;20482;-72
2021/03/08 12:32:10;;;;;;;21.40;7.28;;;;;;;;;;4980912;28;20033;-71
2021/03/08 12:34:36;;;;;;;14.95;5.95;;;;;;;;;;4990941;28;20038;-71
2021/03/08 12:37:05;;;;;;;28.17;17.55;;;;;;;;;;4992579;28;20022;-71
2021/03/08 12:39:31;;;;;;;14.65;4.95;;;;;;;;;;4989176;28;20032;-73
2021/03/08 12:41:57;;;;;;;123.35;36.33;;;;;;;;;;4986089;28;20073;-71
2021/03/08 12:44:23;;;;;;;52.42;14.20;;;;;;;;;;4992415;28;20039;-73
2021/03/08 12:46:49;;;;;;;18.73;6.15;;;;;;;;;;4987667;28;20425;-73
2021/03/08 12:49:18;;;;;;;50.03;13.32;;;;;;;;;;4989889;28;20038;-73
2021/03/08 12:51:44;;;;;;;8.30;3.67;;;;;;;;;;4991077;28;20478;-72
2021/03/08 12:54:10;;;;;;;56.67;14.35;;;;;;;;;;4990260;28;20088;-72
2021/03/08 12:56:36;;;;;;;37.65;13.73;;;;;;;;;;4991846;28;20029;-69
2021/03/08 12:59:02;;;;;;;16.90;6.15;;;;;;;;;;4991561;28;20026;-71
2021/03/08 13:01:29;;;;;;;25.45;11.57;;;;;;;;;;4991636;28;20057;-71
2021/03/08 13:03:55;;;;;;;37.92;20.63;;;;;;;;;;4993064;28;20018;-71
2021/03/08 13:06:24;;;;;;;21.40;6.00;;;;;;;;;;4995428;28;20033;-73
2021/03/08 13:08:50;;;;;;;27.98;11.48;;;;;;;;;;4995290;28;20030;-73
2021/03/08 13:11:16;;;;;;;50.13;24.58;;;;;;;;;;4994765;28;20054;-72
2021/03/08 13:13:42;;;;;;;66.45;25.80;;;;;;;;;;4995422;28;20032;-72
2021/03/08 13:16:08;;;;;;;35.08;9.70;;;;;;;;;;4994252;28;20109;-72
2021/03/08 13:18:34;;;;;;;18.23;5.85;;;;;;;;;;4995570;28;20533;-71
2021/03/08 13:21:00;;;;;;;8.32;3.63;;;;;;;;;;4994814;28;20037;-74
2021/03/08 13:23:26;;;;;;;25.40;12.57;;;;;;;;;;4985711;28;20490;-71
2021/03/08 13:25:58;;;;;;;19.17;7.18;;;;;;;;;;4995696;28;20027;-72
2021/03/08 13:28:27;;;;;;;45.00;13.40;;;;;;;;;;4981499;28;20075;-74
2021/03/08 13:30:57;;;;;;;43.30;21.60;;;;;;;;;;4974144;28;20034;-73
2021/03/08 13:33:26;;;;;;;11.55;5.13;;;;;;;;;;4985749;28;20116;-73
2021/03/08 13:35:55;;;;;;;8.45;3.95;;;;;;;;;;4981861;28;20038;-72
2021/03/08 13:38:21;;;;;;;10.05;4.68;;;;;;;;;;4994933;28;20117;-70
2021/03/08 13:40:51;;;;;;;12.23;5.05;;;;;;;;;;4991348;28;20037;-70
2021/03/08 13:43:17;;;;;;;9.95;5.38;;;;;;;;;;4975626;28;20027;-74
2021/03/08 13:45:43;;;;;;;10.15;3.42;;;;;;;;;;4975324;28;20728;-76
2021/03/08 13:48:09;;;;;;;48.63;19.67;;;;;;;;;;4969380;28;20121;-73
2021/03/08 13:50:39;;;;;;;16.83;6.97;;;;;;;;;;4985242;28;20061;-74
2021/03/08 13:53:05;;;;;;;35.00;14.07;;;;;;;;;;4984147;28;20027;-71
2021/03/08 13:55:31;;;;;;;16.55;5.95;;;;;;;;;;4994504;28;20053;-72
2021/03/08 13:57:58;;;;;;;26.92;9.70;;;;;;;;;;4983016;28;20153;-71
2021/03/08 14:00:24;;;;;;;22.17;7.93;;;;;;;;;;4995144;28;20427;-72
2021/03/08 14:02:51;;;;;;;10.77;4.30;;;;;;;;;;4985942;28;20034;-72
2021/03/08 14:05:22;;;;;;;15.80;6.07;;;;;;;;;;4995474;28;20137;-72
2021/03/08 14:07:51;;;;;;;15.23;5.22;;;;;;;;;;4983673;28;20348;-70
2021/03/08 14:10:17;;;;;;;8.18;2.75;;;;;;;;;;4995533;28;20030;-69
2021/03/08 14:12:44;;;;;;;5.55;2.85;;;;;;;;;;4995351;28;20060;-70
2021/03/08 14:15:10;;;;;;;6.32;2.10;;;;;;;;;;4993153;28;20028;-71
2021/03/08 14:17:36;;;;;;;3.88;2.22;;;;;;;;;;5001642;28;20509;-74
2021/03/08 14:20:03;;;;;;;29.17;12.85;;;;;;;;;;4984545;28;20033;-74
2021/03/08 14:22:29;;;;;;;31.67;12.60;;;;;;;;;;4977723;28;20130;-72
2021/03/08 14:24:55;;;;;;;144.68;42.50;;;;;;;;;;4994625;28;20070;-69
2021/03/08 14:27:21;;;;;;;12.45;3.95;;;;;;;;;;4995267;28;20034;-70
2021/03/08 14:29:48;;;;;;;5.13;2.63;;;;;;;;;;4994948;28;20041;-70
2021/03/08 14:32:16;;;;;;;8.85;3.20;;;;;;;;;;4994681;28;20026;-70
2021/03/08 14:34:42;;;;;;;5.20;2.28;;;;;;;;;;4993759;28;20438;-73
2021/03/08 14:37:08;;;;;;;2.85;1.38;;;;;;;;;;4984808;28;20459;-71
2021/03/08 14:39:34;;;;;;;3.88;1.77;;;;;;;;;;4994071;28;20076;-71
2021/03/08 14:42:00;;;;;;;5.78;2.25;;;;;;;;;;4993965;28;20467;-73
2021/03/08 14:44:26;;;;;;;1.88;1.10;;;;;;;;;;4988463;28;20041;-70
2021/03/08 14:46:52;;;;;;;2.70;1.23;;;;;;;;;;4992126;28;20383;-69
2021/03/08 14:49:22;;;;;;;2.42;1.05;;;;;;;;;;4982300;28;20395;-70
2021/03/08 14:51:51;;;;;;;8.55;2.13;;;;;;;;;;4989563;28;20022;-73
2021/03/08 14:54:18;;;;;;;8.77;2.55;;;;;;;;;;4983250;28;20031;-72
2021/03/08 14:56:44;;;;;;;10.63;4.22;;;;;;;;;;4991894;28;20022;-71
2021/03/08 14:59:10;;;;;;;18.42;7.50;;;;;;;;;;4992800;28;20026;-72
2021/03/08 15:01:36;;;;;;;11.50;6.00;;;;;;;;;;4983981;28;20073;-73
2021/03/08 15:04:02;;;;;;;14.43;5.00;;;;;;;;;;4992973;28;20019;-73
2021/03/08 15:06:34;;;;;;;14.27;5.30;;;;;;;;;;4993511;28;20042;-76
2021/03/08 15:09:06;;;;;;;8.60;5.10;;;;;;;;;;4985285;28;20064;-74
2021/03/08 15:11:32;;;;;;;4.90;2.65;;;;;;;;;;4958563;28;20034;-74
2021/03/08 15:13:59;;;;;;;8.00;3.13;;;;;;;;;;4980566;28;20033;-74
2021/03/08 15:16:27;;;;;;;8.25;3.80;;;;;;;;;;4993566;28;20479;-73
2021/03/08 15:18:59;;;;;;;7.10;3.10;;;;;;;;;;4976366;28;20030;-74
2021/03/08 15:21:25;;;;;;;5.88;3.42;;;;;;;;;;4976489;28;20045;-73
2021/03/08 15:23:52;;;;;;;10.57;4.72;;;;;;;;;;4975941;28;20054;-73
2021/03/08 15:26:18;;;;;;;91.47;39.58;;;;;;;;;;4992071;28;20033;-72
2021/03/08 15:28:44;;;;;;;26.10;12.10;;;;;;;;;;4991100;28;20483;-72
2021/03/08 15:31:13;;;;;;;44.95;17.88;;;;;;;;;;4991951;28;20045;-74
2021/03/08 15:33:39;;;;;;;46.75;17.52;;;;;;;;;;4993333;28;20040;-71
2021/03/08 15:36:05;;;;;;;26.88;9.15;;;;;;;;;;4993500;28;20538;-73
2021/03/08 15:38:31;;;;;;;43.95;17.77;;;;;;;;;;4991948;28;20034;-73
2021/03/08 15:40:57;;;;;;;72.68;25.35;;;;;;;;;;4991747;28;20049;-72
2021/03/08 15:43:23;;;;;;;33.45;12.30;;;;;;;;;;4991595;28;20022;-72
2021/03/08 15:45:49;;;;;;;47.05;15.38;;;;;;;;;;4992838;28;20494;-73
2021/03/08 15:48:23;;;;;;;242.43;60.65;;;;;;;;;;5062698;28;20357;-74
2021/03/08 15:50:52;;;;;;;215.50;49.83;;;;;;;;;;5046061;28;20025;-73
2021/03/08 15:53:19;;;;;;;155.18;39.28;;;;;;;;;;5047026;28;20028;-73
2021/03/08 15:55:45;;;;;;;36.42;13.48;;;;;;;;;;5047315;28;20095;-69
2021/03/08 15:58:11;;;;;;;23.35;9.52;;;;;;;;;;5048464;28;20029;-69
2021/03/08 16:00:39;;;;;;;31.55;12.95;;;;;;;;;;5048477;28;20022;-74
2021/03/08 16:03:10;;;;;;;8.30;3.05;;;;;;;;;;5047468;28;20033;-75
2021/03/08 16:05:38;;;;;;;32.25;13.27;;;;;;;;;;5046730;28;20075;-71
2021/03/08 16:08:07;;;;;;;42.67;13.85;;;;;;;;;;5046496;28;20037;-78
2021/03/08 16:10:33;;;;;;;4.07;1.73;;;;;;;;;;5047623;28;20036;-74
2021/03/08 16:13:02;;;;;;;3.97;1.67;;;;;;;;;;5048592;28;20386;-77
2021/03/08 16:15:29;;;;;;;18.38;3.03;;;;;;;;;;5047732;28;20378;-74
2021/03/08 16:17:58;;;;;;;34.85;8.23;;;;;;;;;;5048468;28;20040;-74
2021/03/08 16:20:24;;;;;;;35.60;8.48;;;;;;;;;;5051124;28;20047;-78
2021/03/08 16:22:53;;;;;;;26.50;6.20;;;;;;;;;;5047018;28;20029;-75
2021/03/08 16:25:19;;;;;;;48.15;9.25;;;;;;;;;;5048220;28;20035;-73
2021/03/08 16:27:45;;;;;;;25.05;6.18;;;;;;;;;;5045964;28;20099;-76
2021/03/08 16:30:12;;;;;;;50.15;15.48;;;;;;;;;;5047796;28;20041;-75
2021/03/08 16:32:41;;;;;;;45.55;14.30;;;;;;;;;;5045531;28;20029;-73
2021/03/08 16:35:07;;;;;;;42.92;12.35;;;;;;;;;;5046819;28;20496;-74
2021/03/08 16:37:33;;;;;;;17.63;5.65;;;;;;;;;;5044958;28;20128;-73
2021/03/08 16:40:02;;;;;;;29.63;7.65;;;;;;;;;;5050680;28;20029;-76
2021/03/08 16:42:31;;;;;;;9.88;3.58;;;;;;;;;;5047844;28;20034;-74
2021/03/08 16:45:00;;;;;;;17.33;7.82;;;;;;;;;;5046138;28;20025;-74
2021/03/08 16:47:26;;;;;;;20.90;7.60;;;;;;;;;;5027182;28;20391;-71
2021/03/08 16:49:53;;;;;;;25.52;14.32;;;;;;;;;;5039779;28;20025;-72
2021/03/08 16:52:22;;;;;;;48.80;26.23;;;;;;;;;;5043309;28;20034;-73
2021/03/08 16:54:50;;;;;;;18.23;8.57;;;;;;;;;;5026974;28;20613;-70
2021/03/08 16:57:16;;;;;;;18.67;8.77;;;;;;;;;;5028250;28;20061;-74
2021/03/08 16:59:42;;;;;;;39.17;18.70;;;;;;;;;;5013774;28;20030;-69
2021/03/08 17:02:08;;;;;;;35.50;18.90;;;;;;;;;;5017566;28;20029;-69
2021/03/08 17:04:34;;;;;;;18.98;9.93;;;;;;;;;;5034660;28;20068;-70
2021/03/08 17:07:00;;;;;;;59.03;28.65;;;;;;;;;;5033282;28;20463;-73
2021/03/08 17:09:26;;;;;;;29.67;12.48;;;;;;;;;;5026841;28;20037;-73
2021/03/08 17:11:55;;;;;;;40.42;17.17;;;;;;;;;;5022195;28;20025;-75
2021/03/08 17:14:21;;;;;;;34.83;17.33;;;;;;;;;;5014222;28;20026;-69
2021/03/08 17:16:47;;;;;;;33.90;11.93;;;;;;;;;;5013721;28;20045;-72
2021/03/08 17:19:15;;;;;;;28.83;11.32;;;;;;;;;;5014752;28;20386;-70
2021/03/08 17:21:45;;;;;;;38.55;13.70;;;;;;;;;;5014960;28;20038;-72
2021/03/08 17:24:11;;;;;;;36.30;11.98;;;;;;;;;;5013647;28;20120;-70
2021/03/08 17:26:37;;;;;;;13.50;5.05;;;;;;;;;;5016250;28;20032;-73
2021/03/08 17:29:03;;;;;;;9.50;3.13;;;;;;;;;;5019213;28;20810;-70
2021/03/08 17:31:29;;;;;;;11.63;4.70;;;;;;;;;;5032879;28;20112;-71
2021/03/08 17:33:56;;;;;;;9.98;3.85;;;;;;;;;;5034915;28;20100;-70
2021/03/08 17:36:22;;;;;;;7.32;3.78;;;;;;;;;;5034176;28;20037;-72
2021/03/08 17:38:48;;;;;;;7.85;3.30;;;;;;;;;;5033158;28;20067;-72
2021/03/08 17:41:14;;;;;;;10.88;3.70;;;;;;;;;;5034635;28;20061;-73
2021/03/08 17:43:40;;;;;;;12.18;4.88;;;;;;;;;;5033220;28;20048;-71
2021/03/08 17:46:06;;;;;;;11.85;4.07;;;;;;;;;;5032712;28;20026;-70
2021/03/08 17:48:32;;;;;;;26.95;4.50;;;;;;;;;;5033153;28;20041;-70
2021/03/08 17:50:58;;;;;;;10.55;4.88;;;;;;;;;;5034230;28;20426;-70
2021/03/08 17:53:24;;;;;;;10.75;4.47;;;;;;;;;;5033045;28;20029;-72
2021/03/08 17:55:50;;;;;;;13.88;5.15;;;;;;;;;;5032670;28;20033;-72
2021/03/08 17:58:16;;;;;;;19.15;5.40;;;;;;;;;;5034168;28;20037;-70
2021/03/08 18:00:42;;;;;;;13.38;4.78;;;;;;;;;;5033657;28;20029;-73
2021/03/08 18:03:08;;;;;;;13.90;5.75;;;;;;;;;;5034168;28;20381;-71
2021/03/08 18:05:34;;;;;;;21.40;10.00;;;;;;;;;;5032769;28;20117;-69
2021/03/08 18:08:00;;;;;;;25.52;12.07;;;;;;;;;;5034135;28;20030;-71
2021/03/08 18:10:26;;;;;;;38.08;17.40;;;;;;;;;;5031415;28;20385;-72
2021/03/08 18:12:52;;;;;;;26.02;9.05;;;;;;;;;;5032221;28;20033;-74
2021/03/08 18:15:18;;;;;;;21.92;8.35;;;;;;;;;;5032652;28;20036;-73
2021/03/08 18:17:50;;;;;;;26.08;10.40;;;;;;;;;;5025349;28;20069;-73
2021/03/08 18:20:17;;;;;;;41.80;13.20;;;;;;;;;;5018091;28;21232;-74
2021/03/08 18:22:45;;;;;;;29.10;11.90;;;;;;;;;;5012157;28;20033;-73
2021/03/08 18:25:11;;;;;;;35.10;17.63;;;;;;;;;;5012474;28;20080;-71
2021/03/08 18:27:38;;;;;;;28.33;13.68;;;;;;;;;;5013362;28;20030;-72
2021/03/08 18:30:05;;;;;;;27.88;12.23;;;;;;;;;;5013302;28;20633;-72
2021/03/08 18:32:31;;;;;;;27.52;13.27;;;;;;;;;;5012020;28;20092;-73
2021/03/08 18:35:03;;;;;;;32.58;15.68;;;;;;;;;;5011387;28;20441;-75
2021/03/08 18:37:32;;;;;;;83.07;41.47;;;;;;;;;;5026135;28;20033;-74
2021/03/08 18:40:01;;;;;;;34.10;12.27;;;;;;;;;;5031361;28;20381;-72
2021/03/08 18:42:33;;;;;;;34.63;14.35;;;;;;;;;;5031802;28;20030;-74
2021/03/08 18:44:59;;;;;;;79.13;25.05;;;;;;;;;;5030413;28;20021;-74
2021/03/08 18:47:25;;;;;;;85.57;25.00;;;;;;;;;;5030512;28;20041;-72
2021/03/08 18:49:54;;;;;;;89.45;24.42;;;;;;;;;;5030481;28;20382;-74
2021/03/08 18:52:23;;;;;;;73.70;19.98;;;;;;;;;;5030258;28;20031;-73
2021/03/08 18:54:55;;;;;;;157.00;40.85;;;;;;;;;;5030002;28;20025;-73
2021/03/08 18:57:21;;;;;;;132.77;36.85;;;;;;;;;;5028883;28;20045;-73
2021/03/08 18:59:50;;;;;;;115.03;33.30;;;;;;;;;;5028757;28;20033;-73
2021/03/08 19:02:16;;;;;;;103.85;30.83;;;;;;;;;;5030785;28;20385;-73
2021/03/08 19:04:42;;;;;;;83.53;25.45;;;;;;;;;;5030854;28;20029;-72
2021/03/08 19:07:13;;;;;;;64.82;19.88;;;;;;;;;;5031678;28;20032;-73
2021/03/08 19:09:42;;;;;;;65.80;20.53;;;;;;;;;;5031483;28;20039;-75
2021/03/08 19:12:12;;;;;;;54.30;15.88;;;;;;;;;;5031748;28;20276;-74
2021/03/08 19:14:38;;;;;;;67.78;24.45;;;;;;;;;;5024151;28;20095;-74
2021/03/08 19:17:04;;;;;;;132.80;39.92;;;;;;;;;;5025063;28;20092;-75
2021/03/08 19:19:37;;;;;;;148.45;41.65;;;;;;;;;;5031117;28;20057;-75
2021/03/08 19:22:03;;;;;;;214.18;57.00;;;;;;;;;;5031061;28;20048;-72
2021/03/08 19:24:29;;;;;;;221.60;60.28;;;;;;;;;;5030255;28;20032;-73
2021/03/08 19:26:55;;;;;;;160.40;46.15;;;;;;;;;;5030924;28;20033;-74
2021/03/08 19:29:25;;;;;;;125.25;44.78;;;;;;;;;;5032727;28;20028;-78
2021/03/08 19:31:57;;;;;;;134.50;44.00;;;;;;;;;;5030581;28;20048;-75
2021/03/08 19:34:31;;;;;;;87.32;30.27;;;;;;;;;;5029665;28;20167;-75
2021/03/08 19:37:08;;;;;;;86.45;31.00;;;;;;;;;;5026948;28;20041;-73
2021/03/08 19:39:37;;;;;;;118.55;38.88;;;;;;;;;;5031068;28;20160;-72
2021/03/08 19:42:07;;;;;;;112.32;39.85;;;;;;;;;;5030085;28;20037;-72
2021/03/08 19:44:34;;;;;;;103.70;35.83;;;;;;;;;;5029599;28;20029;-72
2021/03/08 19:47:06;;;;;;;99.38;32.33;;;;;;;;;;5029306;28;20068;-71
2021/03/08 19:49:35;;;;;;;78.93;26.65;;;;;;;;;;5026640;28;20540;-70
2021/03/08 19:52:05;;;;;;;80.82;25.55;;;;;;;;;;5036180;28;20037;-78
2021/03/08 19:54:34;;;;;;;57.17;21.35;;;;;;;;;;5034612;28;20033;-78
2021/03/08 19:57:07;;;;;;;77.95;24.77;;;;;;;;;;5029689;28;20091;-74
2021/03/08 19:59:39;;;;;;;81.75;28.35;;;;;;;;;;5027021;28;20386;-73
2021/03/08 20:02:06;;;;;;;83.90;27.30;;;;;;;;;;5029614;28;20032;-75
2021/03/08 20:04:38;;;;;;;68.90;22.98;;;;;;;;;;5026797;28;20108;-75
2021/03/08 20:07:05;;;;;;;63.60;21.98;;;;;;;;;;5026531;28;20356;-74
2021/03/08 20:09:31;;;;;;;69.05;23.42;;;;;;;;;;5029236;28;20053;-73
2021/03/08 20:11:57;;;;;;;67.65;22.48;;;;;;;;;;5029675;28;20025;-76
2021/03/08 20:14:24;;;;;;;68.80;22.20;;;;;;;;;;5029556;28;20033;-76
2021/03/08 20:16:50;;;;;;;60.85;21.58;;;;;;;;;;5026005;28;20039;-74
2021/03/08 20:19:16;;;;;;;56.10;19.70;;;;;;;;;;5032323;28;20385;-78
2021/03/08 20:21:43;;;;;;;56.97;18.33;;;;;;;;;;5031800;28;20129;-76